sensor_id;sensor_type;location;lat;lon;timestamp;pressure;altitude;pressure_sealevel;temperature;humidity
8627;BME280;4351;51.422;6.794;2022-12-18T00:01:29;101184.13;;;-5.67;100.00
8627;BME280;4351;51.422;6.794;2022-12-18T00:03:58;101176.38;;;-5.57;100.00
8627;BME280;4351;51.422;6.794;2022-12-18T00:06:28;101192.25;;;-5.48;100.00
8627;BME280;4351;51.422;6.794;2022-12-18T00:08:57;101184.41;;;-5.46;100.00
8627;BME280;4351;51.422;6.794;2022-12-18T00:11:27;101180.22;;;-5.28;100.00
8627;BME280;4351;51.422;6.794;2022-12-18T00:13:58;101204.38;;;-5.61;100.00
8627;BME280;4351;51.422;6.794;2022-12-18T00:16:28;101214.72;;;-5.73;100.00
8627;BME280;4351;51.422;6.794;2022-12-18T00:18:57;101201.66;;;-5.66;100.00
8627;BME280;4351;51.422;6.794;2022-12-18T00:21:26;101204.28;;;-5.66;100.00
8627;BME280;4351;51.422;6.794;2022-12-18T00:23:54;101192.94;;;-5.61;100.00
8627;BME280;4351;51.422;6.794;2022-12-18T00:26:24;101194.59;;;-5.71;100.00
8627;BME280;4351;51.422;6.794;2022-12-18T00:28:58;101192.88;;;-5.68;100.00
8627;BME280;4351;51.422;6.794;2022-12-18T00:31:31;101178.94;;;-5.62;100.00
8627;BME280;4351;51.422;6.794;2022-12-18T00:34:06;101171.97;;;-5.58;100.00
8627;BME280;4351;51.422;6.794;2022-12-18T00:36:34;101173.69;;;-5.60;100.00
8627;BME280;4351;51.422;6.794;2022-12-18T00:39:04;101173.78;;;-5.54;100.00
8627;BME280;4351;51.422;6.794;2022-12-18T00:41:33;101171.13;;;-5.57;100.00
8627;BME280;4351;51.422;6.794;2022-12-18T00:44:19;101178.03;;;-5.64;100.00
8627;BME280;4351;51.422;6.794;2022-12-18T00:46:48;101182.28;;;-5.72;100.00
8627;BME280;4351;51.422;6.794;2022-12-18T00:49:18;101193.53;;;-5.83;100.00
8627;BME280;4351;51.422;6.794;2022-12-18T00:51:46;101189.41;;;-5.63;100.00
8627;BME280;4351;51.422;6.794;2022-12-18T00:54:14;101192.03;;;-5.65;100.00
8627;BME280;4351;51.422;6.794;2022-12-18T00:56:43;101210.06;;;-5.92;100.00
8627;BME280;4351;51.422;6.794;2022-12-18T00:59:15;101216.09;;;-5.99;100.00
8627;BME280;4351;51.422;6.794;2022-12-18T01:01:43;101217.78;;;-6.03;100.00
8627;BME280;4351;51.422;6.794;2022-12-18T01:04:13;101217.00;;;-5.97;100.00
8627;BME280;4351;51.422;6.794;2022-12-18T01:06:44;101218.75;;;-5.96;100.00
8627;BME280;4351;51.422;6.794;2022-12-18T01:09:13;101218.88;;;-5.88;100.00
8627;BME280;4351;51.422;6.794;2022-12-18T01:11:41;101222.28;;;-5.95;100.00
8627;BME280;4351;51.422;6.794;2022-12-18T01:14:10;101208.31;;;-5.93;100.00
8627;BME280;4351;51.422;6.794;2022-12-18T01:16:38;101197.16;;;-5.74;100.00
8627;BME280;4351;51.422;6.794;2022-12-18T01:19:06;101194.47;;;-5.79;100.00
8627;BME280;4351;51.422;6.794;2022-12-18T01:21:35;101190.16;;;-5.72;100.00
8627;BME280;4351;51.422;6.794;2022-12-18T01:24:04;101193.00;;;-5.60;100.00
8627;BME280;4351;51.422;6.794;2022-12-18T01:26:32;101173.75;;;-5.57;100.00
8627;BME280;4351;51.422;6.794;2022-12-18T01:29:00;101185.06;;;-5.63;100.00
8627;BME280;4351;51.422;6.794;2022-12-18T01:31:30;101187.69;;;-5.61;100.00
8627;BME280;4351;51.422;6.794;2022-12-18T01:34:02;101172.19;;;-5.39;100.00
8627;BME280;4351;51.422;6.794;2022-12-18T01:36:32;101167.06;;;-5.30;100.00
8627;BME280;4351;51.422;6.794;2022-12-18T01:39:06;101155.69;;;-5.26;100.00
8627;BME280;4351;51.422;6.794;2022-12-18T01:41:35;101145.28;;;-5.16;100.00
8627;BME280;4351;51.422;6.794;2022-12-18T01:47:25;101144.47;;;-5.12;100.00
8627;BME280;4351;51.422;6.794;2022-12-18T01:49:55;101143.56;;;-5.14;100.00
8627;BME280;4351;51.422;6.794;2022-12-18T01:52:24;101137.69;;;-4.88;100.00
8627;BME280;4351;51.422;6.794;2022-12-18T01:54:55;101157.66;;;-5.09;100.00
8627;BME280;4351;51.422;6.794;2022-12-18T01:57:25;101146.38;;;-4.96;100.00
8627;BME280;4351;51.422;6.794;2022-12-18T01:59:57;101138.53;;;-4.92;100.00
8627;BME280;4351;51.422;6.794;2022-12-18T02:02:39;101136.00;;;-4.83;100.00
8627;BME280;4351;51.422;6.794;2022-12-18T02:05:09;101136.94;;;-4.75;100.00
8627;BME280;4351;51.422;6.794;2022-12-18T02:07:43;101130.88;;;-4.67;100.00
8627;BME280;4351;51.422;6.794;2022-12-18T02:10:19;101135.22;;;-4.69;100.00
8627;BME280;4351;51.422;6.794;2022-12-18T02:12:57;101141.22;;;-4.86;100.00
8627;BME280;4351;51.422;6.794;2022-12-18T02:15:33;101144.81;;;-4.79;100.00
8627;BME280;4351;51.422;6.794;2022-12-18T02:18:07;101153.38;;;-5.01;100.00
8627;BME280;4351;51.422;6.794;2022-12-18T02:20:42;101166.53;;;-5.01;100.00
8627;BME280;4351;51.422;6.794;2022-12-18T02:23:27;101149.06;;;-4.94;100.00
8627;BME280;4351;51.422;6.794;2022-12-18T02:26:15;101145.31;;;-5.13;100.00
8627;BME280;4351;51.422;6.794;2022-12-18T02:28:51;101116.78;;;-4.74;100.00
8627;BME280;4351;51.422;6.794;2022-12-18T02:31:23;101113.19;;;-4.78;100.00
8627;BME280;4351;51.422;6.794;2022-12-18T02:33:57;101106.34;;;-4.60;100.00
8627;BME280;4351;51.422;6.794;2022-12-18T02:36:27;101115.88;;;-4.76;100.00
8627;BME280;4351;51.422;6.794;2022-12-18T02:39:00;101108.97;;;-4.63;100.00
8627;BME280;4351;51.422;6.794;2022-12-18T02:41:33;101110.72;;;-4.65;100.00
8627;BME280;4351;51.422;6.794;2022-12-18T02:44:07;101102.91;;;-4.50;100.00
8627;BME280;4351;51.422;6.794;2022-12-18T02:46:37;101109.91;;;-4.53;100.00
8627;BME280;4351;51.422;6.794;2022-12-18T02:49:19;101107.31;;;-4.50;100.00
8627;BME280;4351;51.422;6.794;2022-12-18T02:51:54;101112.50;;;-4.61;100.00
8627;BME280;4351;51.422;6.794;2022-12-18T02:57:33;101099.28;;;-4.64;100.00
8627;BME280;4351;51.422;6.794;2022-12-18T03:00:06;101118.50;;;-4.75;100.00
8627;BME280;4351;51.422;6.794;2022-12-18T03:02:41;101121.19;;;-4.70;100.00
8627;BME280;4351;51.422;6.794;2022-12-18T03:05:15;101118.47;;;-4.78;100.00
8627;BME280;4351;51.422;6.794;2022-12-18T03:07:50;101115.00;;;-4.75;100.00
8627;BME280;4351;51.422;6.794;2022-12-18T03:10:26;101120.22;;;-4.80;100.00
8627;BME280;4351;51.422;6.794;2022-12-18T03:13:00;101109.56;;;-4.92;100.00
8627;BME280;4351;51.422;6.794;2022-12-18T03:15:35;101107.78;;;-4.93;100.00
8627;BME280;4351;51.422;6.794;2022-12-18T03:18:12;101101.63;;;-4.97;100.00
8627;BME280;4351;51.422;6.794;2022-12-18T03:20:42;101098.97;;;-4.99;100.00
8627;BME280;4351;51.422;6.794;2022-12-18T03:23:16;101104.19;;;-5.05;100.00
8627;BME280;4351;51.422;6.794;2022-12-18T03:25:53;101104.22;;;-5.02;100.00
8627;BME280;4351;51.422;6.794;2022-12-18T03:28:28;101091.09;;;-4.97;100.00
8627;BME280;4351;51.422;6.794;2022-12-18T03:31:04;101102.47;;;-5.00;100.00
8627;BME280;4351;51.422;6.794;2022-12-18T03:33:37;101086.78;;;-4.90;100.00
8627;BME280;4351;51.422;6.794;2022-12-18T03:36:08;101085.19;;;-4.69;100.00
8627;BME280;4351;51.422;6.794;2022-12-18T03:38:37;101073.13;;;-4.41;100.00
8627;BME280;4351;51.422;6.794;2022-12-18T03:41:11;101059.97;;;-4.39;100.00
8627;BME280;4351;51.422;6.794;2022-12-18T03:44:08;101058.19;;;-4.40;100.00
8627;BME280;4351;51.422;6.794;2022-12-18T03:46:47;101041.59;;;-4.27;100.00
8627;BME280;4351;51.422;6.794;2022-12-18T03:49:23;101045.16;;;-4.18;100.00
8627;BME280;4351;51.422;6.794;2022-12-18T03:52:01;101031.13;;;-4.14;100.00
8627;BME280;4351;51.422;6.794;2022-12-18T03:54:32;101035.59;;;-4.00;100.00
8627;BME280;4351;51.422;6.794;2022-12-18T03:57:13;101031.13;;;-4.08;100.00
8627;BME280;4351;51.422;6.794;2022-12-18T03:59:47;101030.34;;;-3.96;100.00
8627;BME280;4351;51.422;6.794;2022-12-18T04:02:25;101020.66;;;-3.92;100.00
8627;BME280;4351;51.422;6.794;2022-12-18T04:04:59;101006.69;;;-3.72;100.00
8627;BME280;4351;51.422;6.794;2022-12-18T04:07:31;101003.16;;;-3.74;100.00
8627;BME280;4351;51.422;6.794;2022-12-18T04:10:01;101003.16;;;-3.76;100.00
8627;BME280;4351;51.422;6.794;2022-12-18T04:12:31;100999.66;;;-3.70;100.00
8627;BME280;4351;51.422;6.794;2022-12-18T04:15:03;101005.81;;;-3.63;100.00
8627;BME280;4351;51.422;6.794;2022-12-18T04:17:31;101001.41;;;-3.66;100.00
8627;BME280;4351;51.422;6.794;2022-12-18T04:20:00;101009.31;;;-3.74;100.00
8627;BME280;4351;51.422;6.794;2022-12-18T04:22:31;101004.06;;;-3.69;100.00
8627;BME280;4351;51.422;6.794;2022-12-18T04:24:59;101011.09;;;-3.77;100.00
8627;BME280;4351;51.422;6.794;2022-12-18T04:27:36;101021.56;;;-3.84;100.00
8627;BME280;4351;51.422;6.794;2022-12-18T04:30:10;101008.41;;;-3.79;100.00
8627;BME280;4351;51.422;6.794;2022-12-18T04:32:48;101001.44;;;-3.67;100.00
8627;BME280;4351;51.422;6.794;2022-12-18T04:35:25;101006.72;;;-3.64;100.00
8627;BME280;4351;51.422;6.794;2022-12-18T04:37:54;101014.59;;;-3.80;100.00
8627;BME280;4351;51.422;6.794;2022-12-18T04:40:31;101004.00;;;-3.85;100.00
8627;BME280;4351;51.422;6.794;2022-12-18T04:43:18;101009.25;;;-3.97;100.00
8627;BME280;4351;51.422;6.794;2022-12-18T04:46:16;101014.47;;;-4.04;100.00
8627;BME280;4351;51.422;6.794;2022-12-18T04:49:19;101011.84;;;-4.00;100.00
8627;BME280;4351;51.422;6.794;2022-12-18T04:51:48;101024.97;;;-4.10;100.00
8627;BME280;4351;51.422;6.794;2022-12-18T04:54:16;101026.69;;;-4.17;100.00
8627;BME280;4351;51.422;6.794;2022-12-18T04:56:47;101035.44;;;-4.30;100.00
8627;BME280;4351;51.422;6.794;2022-12-18T04:59:15;101031.81;;;-4.45;100.00
8627;BME280;4351;51.422;6.794;2022-12-18T05:01:45;101039.72;;;-4.46;100.00
8627;BME280;4351;51.422;6.794;2022-12-18T05:04:13;101028.28;;;-4.48;100.00
8627;BME280;4351;51.422;6.794;2022-12-18T05:06:46;101036.06;;;-4.67;100.00
8627;BME280;4351;51.422;6.794;2022-12-18T05:09:17;101034.34;;;-4.62;100.00
8627;BME280;4351;51.422;6.794;2022-12-18T05:11:45;101032.59;;;-4.63;100.00
8627;BME280;4351;51.422;6.794;2022-12-18T05:14:14;101034.25;;;-4.75;100.00
8627;BME280;4351;51.422;6.794;2022-12-18T05:16:42;101044.78;;;-4.75;100.00
8627;BME280;4351;51.422;6.794;2022-12-18T05:19:16;101044.69;;;-4.87;100.00
8627;BME280;4351;51.422;6.794;2022-12-18T05:21:46;101046.44;;;-4.88;100.00
8627;BME280;4351;51.422;6.794;2022-12-18T05:24:29;101042.88;;;-4.91;100.00
8627;BME280;4351;51.422;6.794;2022-12-18T05:27:02;101047.22;;;-4.98;100.00
8627;BME280;4351;51.422;6.794;2022-12-18T05:29:37;101042.84;;;-4.96;100.00
8627;BME280;4351;51.422;6.794;2022-12-18T05:32:05;101037.59;;;-4.94;100.00
8627;BME280;4351;51.422;6.794;2022-12-18T05:34:34;101043.75;;;-4.94;100.00
8627;BME280;4351;51.422;6.794;2022-12-18T05:37:03;101042.91;;;-4.88;100.00
8627;BME280;4351;51.422;6.794;2022-12-18T05:39:31;101054.13;;;-5.10;100.00
8627;BME280;4351;51.422;6.794;2022-12-18T05:41:59;101047.19;;;-5.00;100.00
8627;BME280;4351;51.422;6.794;2022-12-18T05:44:27;101044.66;;;-4.90;100.00
8627;BME280;4351;51.422;6.794;2022-12-18T05:46:58;101056.81;;;-5.02;100.00
8627;BME280;4351;51.422;6.794;2022-12-18T05:49:27;101064.75;;;-5.00;100.00
8627;BME280;4351;51.422;6.794;2022-12-18T05:52:01;101064.75;;;-5.00;100.00
8627;BME280;4351;51.422;6.794;2022-12-18T05:54:39;101077.94;;;-4.96;100.00
8627;BME280;4351;51.422;6.794;2022-12-18T05:57:11;101085.66;;;-5.14;100.00
8627;BME280;4351;51.422;6.794;2022-12-18T05:59:39;101087.41;;;-5.18;100.00
8627;BME280;4351;51.422;6.794;2022-12-18T06:02:09;101093.50;;;-5.21;100.00
8627;BME280;4351;51.422;6.794;2022-12-18T06:04:37;101099.59;;;-5.25;100.00
8627;BME280;4351;51.422;6.794;2022-12-18T06:07:07;101102.19;;;-5.28;100.00
8627;BME280;4351;51.422;6.794;2022-12-18T06:09:35;101105.84;;;-5.13;100.00
8627;BME280;4351;51.422;6.794;2022-12-18T06:12:04;101119.81;;;-5.22;100.00
8627;BME280;4351;51.422;6.794;2022-12-18T06:14:57;101132.00;;;-5.27;100.00
8627;BME280;4351;51.422;6.794;2022-12-18T06:17:28;101124.94;;;-5.33;100.00
8627;BME280;4351;51.422;6.794;2022-12-18T06:19:58;101121.50;;;-5.27;100.00
8627;BME280;4351;51.422;6.794;2022-12-18T06:22:35;101120.72;;;-5.15;100.00
8627;BME280;4351;51.422;6.794;2022-12-18T06:25:10;101111.03;;;-5.20;100.00
8627;BME280;4351;51.422;6.794;2022-12-18T06:27:38;101113.59;;;-5.26;100.00
8627;BME280;4351;51.422;6.794;2022-12-18T06:30:09;101103.91;;;-5.30;100.00
8627;BME280;4351;51.422;6.794;2022-12-18T06:32:40;101096.97;;;-5.23;100.00
8627;BME280;4351;51.422;6.794;2022-12-18T06:35:08;101101.22;;;-5.38;100.00
8627;BME280;4351;51.422;6.794;2022-12-18T06:37:42;101095.13;;;-5.35;100.00
8627;BME280;4351;51.422;6.794;2022-12-18T06:40:13;101084.59;;;-5.34;100.00
8627;BME280;4351;51.422;6.794;2022-12-18T06:42:49;101071.50;;;-5.29;100.00
8627;BME280;4351;51.422;6.794;2022-12-18T06:45:17;101062.81;;;-5.20;100.00
8627;BME280;4351;51.422;6.794;2022-12-18T06:47:48;101055.78;;;-5.21;100.00
8627;BME280;4351;51.422;6.794;2022-12-18T06:50:23;101061.81;;;-5.32;100.00
8627;BME280;4351;51.422;6.794;2022-12-18T06:52:54;101054.75;;;-5.34;100.00
8627;BME280;4351;51.422;6.794;2022-12-18T06:55:24;101057.34;;;-5.40;100.00
8627;BME280;4351;51.422;6.794;2022-12-18T06:58:12;101062.34;;;-5.61;100.00
8627;BME280;4351;51.422;6.794;2022-12-18T07:00:41;101050.28;;;-5.46;100.00
8627;BME280;4351;51.422;6.794;2022-12-18T07:03:10;101046.69;;;-5.53;100.00
8627;BME280;4351;51.422;6.794;2022-12-18T07:05:39;101051.06;;;-5.52;100.00
8627;BME280;4351;51.422;6.794;2022-12-18T07:08:09;101043.16;;;-5.55;100.00
8627;BME280;4351;51.422;6.794;2022-12-18T07:10:41;101044.06;;;-5.50;100.00
8627;BME280;4351;51.422;6.794;2022-12-18T07:13:13;101053.69;;;-5.54;100.00
8627;BME280;4351;51.422;6.794;2022-12-18T07:15:41;101053.75;;;-5.46;100.00
8627;BME280;4351;51.422;6.794;2022-12-18T07:18:10;101052.97;;;-5.37;100.00
8627;BME280;4351;51.422;6.794;2022-12-18T07:20:39;101071.09;;;-5.65;100.00
8627;BME280;4351;51.422;6.794;2022-12-18T07:23:07;101075.31;;;-5.78;100.00
8627;BME280;4351;51.422;6.794;2022-12-18T07:25:36;101081.34;;;-5.85;100.00
8627;BME280;4351;51.422;6.794;2022-12-18T07:28:04;101058.09;;;-5.51;100.00
8627;BME280;4351;51.422;6.794;2022-12-18T07:30:37;101066.72;;;-5.63;100.00
8627;BME280;4351;51.422;6.794;2022-12-18T07:33:04;101069.47;;;-5.54;100.00
8627;BME280;4351;51.422;6.794;2022-12-18T07:35:32;101065.06;;;-5.56;100.00
8627;BME280;4351;51.422;6.794;2022-12-18T07:38:07;101073.66;;;-5.70;100.00
8627;BME280;4351;51.422;6.794;2022-12-18T07:40:36;101063.19;;;-5.63;100.00
8627;BME280;4351;51.422;6.794;2022-12-18T07:43:04;101064.94;;;-5.66;100.00
8627;BME280;4351;51.422;6.794;2022-12-18T07:45:32;101062.47;;;-5.51;100.00
8627;BME280;4351;51.422;6.794;2022-12-18T07:48:00;101083.34;;;-5.66;100.00
8627;BME280;4351;51.422;6.794;2022-12-18T07:50:28;101104.28;;;-5.75;100.00
8627;BME280;4351;51.422;6.794;2022-12-18T07:52:56;101103.25;;;-5.86;100.00
8627;BME280;4351;51.422;6.794;2022-12-18T07:55:24;101111.13;;;-5.85;100.00
8627;BME280;4351;51.422;6.794;2022-12-18T07:57:56;101111.97;;;-5.91;100.00
8627;BME280;4351;51.422;6.794;2022-12-18T08:00:26;101111.13;;;-5.85;100.00
8627;BME280;4351;51.422;6.794;2022-12-18T08:02:54;101114.59;;;-5.91;100.00
8627;BME280;4351;51.422;6.794;2022-12-18T08:05:23;101096.38;;;-5.75;100.00
8627;BME280;4351;51.422;6.794;2022-12-18T08:07:51;101084.09;;;-5.74;100.00
8627;BME280;4351;51.422;6.794;2022-12-18T08:10:21;101068.47;;;-5.63;100.00
8627;BME280;4351;51.422;6.794;2022-12-18T08:12:50;101056.25;;;-5.58;100.00
8627;BME280;4351;51.422;6.794;2022-12-18T08:15:19;101051.13;;;-5.46;100.00
8627;BME280;4351;51.422;6.794;2022-12-18T08:17:47;101042.34;;;-5.48;100.00
8627;BME280;4351;51.422;6.794;2022-12-18T08:20:15;101027.03;;;-4.99;100.00
8627;BME280;4351;51.422;6.794;2022-12-18T08:22:45;100989.84;;;-4.10;100.00
8627;BME280;4351;51.422;6.794;2022-12-18T08:25:13;100969.81;;;-3.35;100.00
8627;BME280;4351;51.422;6.794;2022-12-18T08:27:41;100950.41;;;-2.58;100.00
8627;BME280;4351;51.422;6.794;2022-12-18T08:30:10;100939.69;;;-2.16;100.00
8627;BME280;4351;51.422;6.794;2022-12-18T08:32:39;100958.19;;;-2.06;100.00
8627;BME280;4351;51.422;6.794;2022-12-18T08:35:09;100992.66;;;-2.52;100.00
8627;BME280;4351;51.422;6.794;2022-12-18T08:37:40;101019.16;;;-2.94;100.00
8627;BME280;4351;51.422;6.794;2022-12-18T08:40:09;101040.25;;;-3.08;100.00
8627;BME280;4351;51.422;6.794;2022-12-18T08:42:37;101048.19;;;-3.12;100.00
8627;BME280;4351;51.422;6.794;2022-12-18T08:45:22;101056.94;;;-3.16;100.00
8627;BME280;4351;51.422;6.794;2022-12-18T08:47:52;101081.56;;;-3.34;100.00
8627;BME280;4351;51.422;6.794;2022-12-18T08:50:20;101078.03;;;-3.36;100.00
8627;BME280;4351;51.422;6.794;2022-12-18T08:52:48;101073.63;;;-3.32;100.00
8627;BME280;4351;51.422;6.794;2022-12-18T08:55:16;101070.13;;;-3.35;100.00
8627;BME280;4351;51.422;6.794;2022-12-18T08:57:47;101055.19;;;-3.18;100.00
8627;BME280;4351;51.422;6.794;2022-12-18T09:00:16;101060.50;;;-3.12;100.00
8627;BME280;4351;51.422;6.794;2022-12-18T09:02:44;101040.28;;;-2.68;100.00
8627;BME280;4351;51.422;6.794;2022-12-18T09:05:14;101024.38;;;-2.39;100.00
8627;BME280;4351;51.422;6.794;2022-12-18T09:07:42;101013.75;;;-2.30;100.00
8627;BME280;4351;51.422;6.794;2022-12-18T09:10:11;101007.59;;;-2.27;100.00
8627;BME280;4351;51.422;6.794;2022-12-18T09:12:39;100994.38;;;-2.24;100.00
8627;BME280;4351;51.422;6.794;2022-12-18T09:15:10;101009.38;;;-2.39;100.00
8627;BME280;4351;51.422;6.794;2022-12-18T09:17:38;101008.50;;;-2.46;100.00
8627;BME280;4351;51.422;6.794;2022-12-18T09:20:07;101013.78;;;-2.46;100.00
8627;BME280;4351;51.422;6.794;2022-12-18T09:22:40;101004.97;;;-2.38;100.00
8627;BME280;4351;51.422;6.794;2022-12-18T09:25:08;100989.13;;;-2.31;100.00
8627;BME280;4351;51.422;6.794;2022-12-18T09:27:36;100976.75;;;-2.22;100.00
8627;BME280;4351;51.422;6.794;2022-12-18T09:30:09;100975.75;;;-1.99;100.00
8627;BME280;4351;51.422;6.794;2022-12-18T09:32:40;100976.59;;;-1.91;100.00
8627;BME280;4351;51.422;6.794;2022-12-18T09:35:08;100973.94;;;-1.83;100.00
8627;BME280;4351;51.422;6.794;2022-12-18T09:37:37;100971.25;;;-1.77;100.00
8627;BME280;4351;51.422;6.794;2022-12-18T09:40:13;100974.72;;;-1.64;100.00
8627;BME280;4351;51.422;6.794;2022-12-18T09:42:45;100970.97;;;-1.30;100.00
8627;BME280;4351;51.422;6.794;2022-12-18T09:45:19;100966.38;;;-1.07;100.00
8627;BME280;4351;51.422;6.794;2022-12-18T09:47:52;100977.81;;;-1.05;100.00
8627;BME280;4351;51.422;6.794;2022-12-18T09:50:27;100976.94;;;-1.04;100.00
8627;BME280;4351;51.422;6.794;2022-12-18T09:53:15;100956.19;;;-0.55;100.00
8627;BME280;4351;51.422;6.794;2022-12-18T09:55:51;100974.66;;;-0.47;100.00
8627;BME280;4351;51.422;6.794;2022-12-18T09:58:41;101000.31;;;-0.49;100.00
8627;BME280;4351;51.422;6.794;2022-12-18T10:01:15;101025.94;;;-0.51;100.00
8627;BME280;4351;51.422;6.794;2022-12-18T10:04:08;101042.53;;;-0.30;100.00
8627;BME280;4351;51.422;6.794;2022-12-18T10:06:45;101057.66;;;-0.40;100.00
8627;BME280;4351;51.422;6.794;2022-12-18T10:09:25;101042.44;;;-0.21;100.00
8627;BME280;4351;51.422;6.794;2022-12-18T10:12:08;101053.03;;;-0.18;100.00
8627;BME280;4351;51.422;6.794;2022-12-18T10:14:50;101081.28;;;-0.14;100.00
8627;BME280;4351;51.422;6.794;2022-12-18T10:17:25;101085.53;;;0.02;100.00
8627;BME280;4351;51.422;6.794;2022-12-18T10:20:15;101096.03;;;0.13;100.00
8627;BME280;4351;51.422;6.794;2022-12-18T10:22:58;101089.81;;;0.14;100.00
8627;BME280;4351;51.422;6.794;2022-12-18T10:25:55;101096.97;;;0.08;100.00
8627;BME280;4351;51.422;6.794;2022-12-18T10:29:00;101084.13;;;0.45;100.00
8627;BME280;4351;51.422;6.794;2022-12-18T10:31:33;101115.47;;;0.15;100.00
8627;BME280;4351;51.422;6.794;2022-12-18T10:34:09;101104.72;;;0.26;100.00
8627;BME280;4351;51.422;6.794;2022-12-18T10:36:37;101106.91;;;0.65;100.00
8627;BME280;4351;51.422;6.794;2022-12-18T10:39:17;101142.56;;;0.42;100.00
8627;BME280;4351;51.422;6.794;2022-12-18T10:41:51;101129.72;;;0.80;100.00
8627;BME280;4351;51.422;6.794;2022-12-18T10:44:22;101151.13;;;0.66;100.00
8627;BME280;4351;51.422;6.794;2022-12-18T10:47:04;101150.13;;;0.78;100.00
8627;BME280;4351;51.422;6.794;2022-12-18T10:49:45;101143.59;;;1.02;100.00
8627;BME280;4351;51.422;6.794;2022-12-18T10:52:18;101157.94;;;0.89;100.00
8627;BME280;4351;51.422;6.794;2022-12-18T10:54:50;101165.25;;;0.71;100.00
8627;BME280;4351;51.422;6.794;2022-12-18T10:57:31;101172.34;;;0.72;100.00
8627;BME280;4351;51.422;6.794;2022-12-18T11:00:28;101142.78;;;0.97;100.00
8627;BME280;4351;51.422;6.794;2022-12-18T11:03:29;101156.31;;;0.78;100.00
8627;BME280;4351;51.422;6.794;2022-12-18T11:06:03;101157.06;;;0.88;100.00
8627;BME280;4351;51.422;6.794;2022-12-18T11:08:38;101159.72;;;0.90;100.00
8627;BME280;4351;51.422;6.794;2022-12-18T11:11:17;101180.06;;;0.91;100.00
8627;BME280;4351;51.422;6.794;2022-12-18T11:13:58;101177.44;;;0.89;100.00
8627;BME280;4351;51.422;6.794;2022-12-18T11:16:43;101160.38;;;1.06;100.00
8627;BME280;4351;51.422;6.794;2022-12-18T11:19:34;101124.75;;;1.74;100.00
8627;BME280;4351;51.422;6.794;2022-12-18T11:22:19;101151.81;;;1.45;100.00
8627;BME280;4351;51.422;6.794;2022-12-18T11:24:55;101170.84;;;1.17;100.00
8627;BME280;4351;51.422;6.794;2022-12-18T11:27:48;101155.53;;;1.35;100.00
8627;BME280;4351;51.422;6.794;2022-12-18T11:30:23;101163.69;;;1.22;100.00
8627;BME280;4351;51.422;6.794;2022-12-18T11:32:56;101145.88;;;1.29;100.00
8627;BME280;4351;51.422;6.794;2022-12-18T11:35:43;101136.19;;;1.23;100.00
8627;BME280;4351;51.422;6.794;2022-12-18T11:38:21;101125.13;;;1.52;100.00
8627;BME280;4351;51.422;6.794;2022-12-18T11:40:58;101134.03;;;1.51;100.00
8627;BME280;4351;51.422;6.794;2022-12-18T11:43:29;101139.44;;;1.44;100.00
8627;BME280;4351;51.422;6.794;2022-12-18T11:46:15;101135.09;;;1.38;100.00
8627;BME280;4351;51.422;6.794;2022-12-18T11:49:01;101129.47;;;1.57;100.00
8627;BME280;4351;51.422;6.794;2022-12-18T11:51:45;101145.69;;;1.42;100.00
8627;BME280;4351;51.422;6.794;2022-12-18T11:54:17;101151.91;;;1.39;100.00
8627;BME280;4351;51.422;6.794;2022-12-18T11:56:51;101157.53;;;1.20;100.00
8627;BME280;4351;51.422;6.794;2022-12-18T11:59:32;101141.50;;;1.23;100.00
8627;BME280;4351;51.422;6.794;2022-12-18T12:02:17;101150.50;;;1.16;100.00
8627;BME280;4351;51.422;6.794;2022-12-18T12:05:18;101139.63;;;1.33;100.00
8627;BME280;4351;51.422;6.794;2022-12-18T12:07:53;101135.28;;;1.26;100.00
8627;BME280;4351;51.422;6.794;2022-12-18T12:10:32;101123.34;;;1.52;100.00
8627;BME280;4351;51.422;6.794;2022-12-18T12:13:23;101133.50;;;1.26;100.00
8627;BME280;4351;51.422;6.794;2022-12-18T12:16:09;101138.91;;;1.22;100.00
8627;BME280;4351;51.422;6.794;2022-12-18T12:19:23;101140.53;;;1.31;100.00
8627;BME280;4351;51.422;6.794;2022-12-18T12:22:08;101136.38;;;1.14;100.00
8627;BME280;4351;51.422;6.794;2022-12-18T12:24:49;101128.91;;;1.36;100.00
8627;BME280;4351;51.422;6.794;2022-12-18T12:27:33;101132.59;;;1.28;100.00
8627;BME280;4351;51.422;6.794;2022-12-18T12:30:21;101134.56;;;1.16;100.00
8627;BME280;4351;51.422;6.794;2022-12-18T12:33:04;101138.97;;;1.16;100.00
8627;BME280;4351;51.422;6.794;2022-12-18T12:35:46;101127.28;;;1.28;100.00
8627;BME280;4351;51.422;6.794;2022-12-18T12:38:25;101136.38;;;1.12;100.00
8627;BME280;4351;51.422;6.794;2022-12-18T12:40:58;101129.28;;;1.13;100.00
8627;BME280;4351;51.422;6.794;2022-12-18T12:43:44;101136.38;;;1.14;100.00
8627;BME280;4351;51.422;6.794;2022-12-18T12:46:18;101131.97;;;1.10;100.00
8627;BME280;4351;51.422;6.794;2022-12-18T12:48:51;101126.66;;;1.11;100.00
8627;BME280;4351;51.422;6.794;2022-12-18T12:51:22;101120.72;;;0.92;100.00
8627;BME280;4351;51.422;6.794;2022-12-18T12:53:54;101112.72;;;0.94;100.00
8627;BME280;4351;51.422;6.794;2022-12-18T12:56:27;101113.56;;;0.96;100.00
8627;BME280;4351;51.422;6.794;2022-12-18T12:59:14;101115.34;;;0.95;100.00
8627;BME280;4351;51.422;6.794;2022-12-18T13:01:51;101114.38;;;1.02;100.00
8627;BME280;4351;51.422;6.794;2022-12-18T13:04:27;101122.53;;;0.90;100.00
8627;BME280;4351;51.422;6.794;2022-12-18T13:07:03;101116.03;;;1.08;100.00
8627;BME280;4351;51.422;6.794;2022-12-18T13:12:57;101112.69;;;0.95;100.00
8627;BME280;4351;51.422;6.794;2022-12-18T13:15:33;101095.78;;;0.99;100.00
8627;BME280;4351;51.422;6.794;2022-12-18T13:18:14;101106.69;;;0.80;100.00
8627;BME280;4351;51.422;6.794;2022-12-18T13:20:44;101097.75;;;0.86;100.00
8627;BME280;4351;51.422;6.794;2022-12-18T13:23:32;101085.31;;;0.90;100.00
8627;BME280;4351;51.422;6.794;2022-12-18T13:26:29;101088.69;;;1.03;100.00
8627;BME280;4351;51.422;6.794;2022-12-18T13:28:59;101090.47;;;1.01;100.00
8627;BME280;4351;51.422;6.794;2022-12-18T13:34:42;101074.75;;;0.84;100.00
8627;BME280;4351;51.422;6.794;2022-12-18T13:37:39;101059.63;;;0.90;100.00
8627;BME280;4351;51.422;6.794;2022-12-18T13:43:30;101061.41;;;0.90;100.00
8627;BME280;4351;51.422;6.794;2022-12-18T13:46:03;101059.66;;;0.89;100.00
8627;BME280;4351;51.422;6.794;2022-12-18T13:48:34;101053.19;;;1.07;100.00
8627;BME280;4351;51.422;6.794;2022-12-18T13:51:05;101058.81;;;0.84;100.00
8627;BME280;4351;51.422;6.794;2022-12-18T13:53:38;101054.53;;;0.76;100.00
8627;BME280;4351;51.422;6.794;2022-12-18T13:56:07;101050.94;;;0.79;100.00